createdAt,value
2018-12-04T00:02:04.552Z,999.90
2018-12-04T00:04:32.459Z,999.90
2018-12-04T00:07:00.364Z,999.90
2018-12-04T00:09:28.297Z,999.90
2018-12-04T00:11:56.258Z,999.90
2018-12-04T00:14:24.164Z,999.90
2018-12-04T00:16:52.084Z,999.90
2018-12-04T00:19:19.997Z,999.90
2018-12-04T00:21:47.912Z,999.90
2018-12-04T00:24:15.859Z,999.90
2018-12-04T00:26:43.863Z,999.90
2018-12-04T00:29:11.812Z,999.90
2018-12-04T00:31:39.745Z,999.90
2018-12-04T00:34:07.664Z,999.90
2018-12-04T00:36:35.528Z,999.90
2018-12-04T00:39:05.345Z,999.90
2018-12-04T00:41:33.324Z,999.90
2018-12-04T00:44:01.243Z,999.90
2018-12-04T00:46:29.156Z,999.90
2018-12-04T00:48:57.076Z,999.90
2018-12-04T00:51:24.984Z,999.90
2018-12-04T00:53:52.876Z,999.90
2018-12-04T00:56:20.798Z,999.90
2018-12-04T00:58:48.708Z,999.90
2018-12-04T01:01:16.667Z,999.90
2018-12-04T01:03:44.560Z,999.90
2018-12-04T01:06:12.485Z,999.90
2018-12-04T01:08:40.396Z,999.90
2018-12-04T01:11:08.296Z,999.90
2018-12-04T01:13:36.227Z,999.90
2018-12-04T01:16:04.141Z,999.90
2018-12-04T01:18:32.054Z,999.90
2018-12-04T01:20:59.984Z,999.90
2018-12-04T01:23:27.879Z,999.90
2018-12-04T01:25:55.820Z,999.90
2018-12-04T01:28:23.711Z,999.90
2018-12-04T01:30:51.633Z,999.90
2018-12-04T01:33:19.553Z,999.90
2018-12-04T01:35:47.452Z,999.90
2018-12-04T01:38:15.477Z,999.90
2018-12-04T01:40:43.396Z,999.90
2018-12-04T01:43:11.258Z,999.90
2018-12-04T01:45:39.198Z,999.90
2018-12-04T01:48:07.113Z,999.90
2018-12-04T01:50:35.098Z,999.90
2018-12-04T01:53:03.093Z,999.90
2018-12-04T01:55:30.992Z,999.90
2018-12-04T01:57:58.899Z,999.90
2018-12-04T02:00:26.844Z,999.90
2018-12-04T02:02:54.744Z,999.90
2018-12-04T02:05:24.095Z,999.90
2018-12-04T02:07:52.463Z,999.90
2018-12-04T02:10:20.360Z,999.90
2018-12-04T02:12:48.282Z,999.90
2018-12-04T02:15:16.192Z,999.90
2018-12-04T02:17:44.119Z,999.90
2018-12-04T02:20:12.041Z,999.90
2018-12-04T02:22:39.964Z,999.90
2018-12-04T02:25:07.860Z,999.90
2018-12-04T02:27:35.793Z,999.90
2018-12-04T02:30:04.000Z,999.90
2018-12-04T02:32:31.946Z,999.90
2018-12-04T02:34:59.970Z,999.90
2018-12-04T02:37:27.868Z,999.90
2018-12-04T02:39:55.777Z,999.90
2018-12-04T02:42:25.976Z,999.90
2018-12-04T02:44:53.964Z,999.90
2018-12-04T02:47:21.882Z,999.90
2018-12-04T02:49:49.733Z,999.90
2018-12-04T02:52:17.629Z,999.90
2018-12-04T02:54:45.540Z,999.90
2018-12-04T02:57:13.437Z,999.90
2018-12-04T02:59:41.347Z,997.70
2018-12-04T03:02:09.277Z,999.90
2018-12-04T03:04:37.176Z,999.90
2018-12-04T03:07:05.095Z,999.90
2018-12-04T03:09:33.097Z,999.90
2018-12-04T03:12:00.997Z,999.90
2018-12-04T03:14:28.903Z,999.90
2018-12-04T03:16:56.804Z,999.90
2018-12-04T03:19:24.712Z,999.90
2018-12-04T03:21:52.671Z,999.90
2018-12-04T03:24:20.564Z,999.90
2018-12-04T03:26:48.473Z,999.90
2018-12-04T03:29:16.404Z,999.90
2018-12-04T03:31:44.314Z,999.90
2018-12-04T03:34:12.171Z,999.90
2018-12-04T03:36:40.073Z,999.90
2018-12-04T03:39:08.165Z,999.90
2018-12-04T03:41:36.097Z,999.90
2018-12-04T03:44:04.105Z,999.90
2018-12-04T03:46:32.006Z,999.90
2018-12-04T03:48:59.913Z,961.70
2018-12-04T03:51:27.789Z,894.53
2018-12-04T03:53:55.691Z,936.53
2018-12-04T03:56:23.598Z,999.90
2018-12-04T03:58:51.497Z,968.40
2018-12-04T04:01:19.507Z,999.90
2018-12-04T04:03:47.407Z,994.63
2018-12-04T04:06:15.317Z,879.33
2018-12-04T04:08:43.257Z,921.80
2018-12-04T04:11:11.107Z,934.30
2018-12-04T04:13:39.000Z,999.90
2018-12-04T04:16:06.912Z,961.60
2018-12-04T04:18:34.805Z,854.30
2018-12-04T04:21:02.719Z,970.30
2018-12-04T04:23:30.708Z,808.33
2018-12-04T04:25:58.617Z,904.60
2018-12-04T04:28:26.586Z,970.80
2018-12-04T04:30:54.577Z,944.37
2018-12-04T04:33:22.580Z,999.90
2018-12-04T04:35:50.563Z,999.90
2018-12-04T04:38:18.513Z,802.00
2018-12-04T04:40:46.352Z,804.93
2018-12-04T04:43:14.278Z,847.03
2018-12-04T04:45:42.128Z,999.90
2018-12-04T04:48:10.104Z,839.07
2018-12-04T04:50:37.939Z,984.70
2018-12-04T04:53:05.857Z,850.53
2018-12-04T04:55:33.708Z,842.27
2018-12-04T04:58:01.568Z,862.30
2018-12-04T05:00:29.530Z,821.13
2018-12-04T05:02:57.441Z,922.47
2018-12-04T05:05:25.376Z,840.57
2018-12-04T05:07:53.384Z,922.83
2018-12-04T05:10:21.294Z,766.10
2018-12-04T05:12:49.277Z,982.10
2018-12-04T05:15:17.201Z,869.40
2018-12-04T05:17:45.057Z,754.03
2018-12-04T05:20:13.012Z,810.47
2018-12-04T05:22:40.922Z,929.47
2018-12-04T05:25:08.812Z,925.60
2018-12-04T05:27:36.685Z,866.03
2018-12-04T05:30:04.991Z,843.70
2018-12-04T05:32:32.937Z,864.80
2018-12-04T05:35:00.836Z,859.77
2018-12-04T05:37:28.747Z,999.90
2018-12-04T05:39:56.607Z,858.77
2018-12-04T05:42:24.539Z,976.53
2018-12-04T05:44:52.456Z,990.33
2018-12-04T05:47:20.366Z,980.50
2018-12-04T05:49:48.280Z,913.57
2018-12-04T05:52:16.172Z,798.10
2018-12-04T05:54:44.080Z,860.43
2018-12-04T05:57:11.992Z,990.90
2018-12-04T05:59:39.913Z,973.27
2018-12-04T06:02:07.828Z,885.57
2018-12-04T06:04:35.735Z,819.07
2018-12-04T06:07:03.648Z,926.23
2018-12-04T06:09:31.495Z,873.13
2018-12-04T06:11:59.418Z,784.67
2018-12-04T06:14:27.763Z,772.60
2018-12-04T06:16:55.668Z,962.60
2018-12-04T06:19:23.601Z,717.90
2018-12-04T06:21:51.483Z,999.90
2018-12-04T06:24:19.401Z,999.90
2018-12-04T06:26:47.245Z,799.43
2018-12-04T06:29:15.147Z,613.20
2018-12-04T06:31:43.100Z,690.00
2018-12-04T06:34:11.020Z,999.90
2018-12-04T06:36:38.936Z,770.87
2018-12-04T06:39:07.298Z,853.13
2018-12-04T06:41:35.277Z,778.00
2018-12-04T06:44:03.180Z,655.10
2018-12-04T06:46:31.097Z,651.87
2018-12-04T06:48:58.996Z,651.33
2018-12-04T06:51:26.900Z,608.97
2018-12-04T06:53:54.828Z,850.53
2018-12-04T06:56:22.676Z,712.67
2018-12-04T06:58:50.696Z,699.33
2018-12-04T07:01:18.629Z,624.17
2018-12-04T07:03:46.525Z,766.17
2018-12-04T07:06:14.408Z,813.70
2018-12-04T07:08:42.308Z,856.33
2018-12-04T07:11:10.248Z,675.33
2018-12-04T07:13:38.144Z,691.10
2018-12-04T07:16:06.012Z,687.97
2018-12-04T07:18:33.952Z,611.53
2018-12-04T07:21:01.853Z,538.40
2018-12-04T07:23:29.771Z,677.17
2018-12-04T07:25:57.680Z,625.97
2018-12-04T07:28:25.581Z,635.70
2018-12-04T07:30:53.493Z,624.87
2018-12-04T07:33:21.388Z,885.07
2018-12-04T07:35:49.299Z,628.93
2018-12-04T07:38:17.268Z,595.80
2018-12-04T07:40:45.168Z,548.67
2018-12-04T07:43:13.051Z,761.83
2018-12-04T07:45:40.940Z,703.07
2018-12-04T07:48:08.825Z,774.80
2018-12-04T07:50:36.737Z,899.17
2018-12-04T07:53:04.640Z,954.37
2018-12-04T07:55:32.528Z,702.03
2018-12-04T07:58:00.437Z,906.93
2018-12-04T08:00:28.371Z,952.87
2018-12-04T08:02:56.317Z,841.30
2018-12-04T08:05:24.217Z,923.03
2018-12-04T08:07:52.112Z,854.43
2018-12-04T08:10:20.002Z,765.90
2018-12-04T08:12:47.898Z,883.43
2018-12-04T08:15:15.818Z,853.80
2018-12-04T08:17:43.704Z,874.93
2018-12-04T08:20:11.593Z,762.40
2018-12-04T08:22:39.496Z,842.00
2018-12-04T08:25:07.397Z,766.40
2018-12-04T08:27:36.084Z,764.07
2018-12-04T08:30:04.653Z,660.07
2018-12-04T08:32:32.609Z,737.17
2018-12-04T08:35:00.461Z,787.63
2018-12-04T08:37:28.404Z,704.50
2018-12-04T08:39:56.306Z,684.73
2018-12-04T08:42:24.256Z,768.13
2018-12-04T08:44:52.184Z,758.87
2018-12-04T08:47:20.088Z,770.17
2018-12-04T08:49:48.000Z,775.87
2018-12-04T08:52:16.840Z,727.00
2018-12-04T08:54:44.697Z,742.63
2018-12-04T08:57:12.606Z,642.83
2018-12-04T08:59:40.532Z,957.90
2018-12-04T09:02:08.460Z,826.87
2018-12-04T09:04:36.364Z,517.13
2018-12-04T09:07:04.264Z,458.67
2018-12-04T09:09:32.136Z,554.97
2018-12-04T09:12:00.072Z,547.67
2018-12-04T09:14:27.979Z,509.33
2018-12-04T09:16:55.917Z,657.83
2018-12-04T09:19:23.832Z,349.60
2018-12-04T09:21:51.787Z,627.60
2018-12-04T09:24:19.795Z,339.97
2018-12-04T09:26:47.797Z,597.40
2018-12-04T09:29:15.830Z,270.00
2018-12-04T09:31:43.707Z,339.87
2018-12-04T09:34:11.603Z,463.60
2018-12-04T09:36:39.487Z,788.93
2018-12-04T09:39:07.579Z,198.03
2018-12-04T09:41:35.493Z,315.73
2018-12-04T09:44:03.400Z,601.87
2018-12-04T09:46:31.284Z,219.47
2018-12-04T09:48:59.245Z,154.87
2018-12-04T09:51:27.140Z,308.57
2018-12-04T09:53:55.057Z,181.57
2018-12-04T09:56:22.943Z,396.87
2018-12-04T09:58:50.837Z,371.63
2018-12-04T10:01:18.737Z,221.07
2018-12-04T10:03:47.136Z,196.53
2018-12-04T10:06:15.020Z,561.37
2018-12-04T10:08:42.929Z,320.40
2018-12-04T10:11:11.197Z,153.80
2018-12-04T10:13:39.103Z,903.67
2018-12-04T10:16:07.038Z,367.60
2018-12-04T10:18:34.980Z,31.70
2018-12-04T10:21:02.900Z,41.67
2018-12-04T10:23:30.785Z,415.93
2018-12-04T10:25:58.696Z,27.90
2018-12-04T10:28:26.608Z,124.23
2018-12-04T10:31:00.208Z,23.00
2018-12-04T10:33:28.124Z,123.83
2018-12-04T10:35:56.044Z,189.77
2018-12-04T10:38:23.991Z,33.00
2018-12-04T10:40:51.901Z,70.73
2018-12-04T10:43:19.743Z,55.90
2018-12-04T10:45:47.657Z,21.53
2018-12-04T10:48:15.540Z,64.23
2018-12-04T10:50:43.463Z,85.37
2018-12-04T10:53:12.000Z,152.73
2018-12-04T10:55:39.941Z,64.47
2018-12-04T10:58:07.839Z,316.97
2018-12-04T11:00:41.104Z,515.13
2018-12-04T11:03:12.099Z,22.27
2018-12-04T11:05:40.730Z,66.80
2018-12-04T11:08:08.640Z,14.17
2018-12-04T11:10:37.304Z,529.37
2018-12-04T11:13:05.292Z,73.00
2018-12-04T11:15:33.185Z,9.13
2018-12-04T11:18:01.111Z,9.97
2018-12-04T11:20:29.013Z,13.47
2018-12-04T11:22:56.909Z,9.57
2018-12-04T11:25:24.837Z,32.70
2018-12-04T11:27:52.732Z,30.17
2018-12-04T11:30:20.654Z,40.20
2018-12-04T11:32:48.556Z,57.73
2018-12-04T11:35:16.467Z,260.40
2018-12-04T11:37:44.365Z,16.27
2018-12-04T11:40:12.309Z,672.47
2018-12-04T11:42:40.201Z,43.40
2018-12-04T11:45:08.088Z,55.67
2018-12-04T11:47:36.020Z,173.67
2018-12-04T11:50:04.061Z,20.23
2018-12-04T11:52:31.990Z,124.40
2018-12-04T11:54:59.898Z,512.10
2018-12-04T11:57:27.808Z,25.40
2018-12-04T11:59:55.705Z,18.33
2018-12-04T12:02:23.692Z,162.27
2018-12-04T12:04:51.605Z,8.17
2018-12-04T12:07:20.635Z,230.17
2018-12-04T12:09:48.845Z,455.20
2018-12-04T12:12:16.757Z,38.77
2018-12-04T12:14:44.657Z,635.60
2018-12-04T12:17:12.573Z,112.17
2018-12-04T12:19:40.490Z,58.63
2018-12-04T12:22:08.407Z,115.23
2018-12-04T12:24:36.333Z,25.70
2018-12-04T12:27:04.261Z,14.23
2018-12-04T12:29:32.298Z,31.10
2018-12-04T12:32:00.304Z,9.50
2018-12-04T12:34:28.176Z,19.40
2018-12-04T12:36:56.085Z,69.37
2018-12-04T12:39:23.961Z,35.33
2018-12-04T12:41:51.977Z,18.60
2018-12-04T12:44:19.961Z,97.10
2018-12-04T12:46:47.838Z,222.73
2018-12-04T12:49:15.720Z,101.43
2018-12-04T12:51:43.600Z,135.37
2018-12-04T12:54:11.492Z,58.83
2018-12-04T12:56:39.368Z,453.23
2018-12-04T12:59:07.283Z,131.47
2018-12-04T13:01:35.157Z,198.37
2018-12-04T13:04:03.037Z,7.83
2018-12-04T13:06:30.940Z,133.97
2018-12-04T13:08:58.815Z,51.40
2018-12-04T13:11:26.724Z,26.80
2018-12-04T13:13:54.560Z,52.50
2018-12-04T13:16:22.464Z,14.50
2018-12-04T13:18:50.365Z,35.67
2018-12-04T13:21:18.336Z,71.00
2018-12-04T13:23:46.221Z,26.73
2018-12-04T13:26:14.095Z,11.07
2018-12-04T13:28:41.985Z,20.07
2018-12-04T13:31:10.510Z,11.47
2018-12-04T13:33:38.508Z,264.13
2018-12-04T13:36:06.489Z,338.50
2018-12-04T13:38:34.390Z,34.80
2018-12-04T13:41:02.551Z,21.03
2018-12-04T13:43:30.473Z,20.87
2018-12-04T13:45:58.350Z,20.87
2018-12-04T13:48:26.243Z,22.23
2018-12-04T13:50:54.300Z,30.77
2018-12-04T13:53:22.379Z,192.60
2018-12-04T13:55:50.264Z,109.03
2018-12-04T13:58:18.250Z,11.33
2018-12-04T14:00:46.468Z,178.70
2018-12-04T14:03:14.561Z,32.87
2018-12-04T14:05:42.578Z,57.97
2018-12-04T14:08:10.473Z,140.80
2018-12-04T14:10:38.605Z,156.63
2018-12-04T14:13:06.581Z,61.73
2018-12-04T14:15:34.552Z,74.60
2018-12-04T14:18:02.496Z,148.77
2018-12-04T14:20:30.386Z,70.33
2018-12-04T14:22:58.280Z,50.33
2018-12-04T14:25:26.199Z,567.17
2018-12-04T14:27:54.184Z,293.93
2018-12-04T14:30:22.439Z,56.67
2018-12-04T14:32:50.403Z,19.83
2018-12-04T14:35:18.303Z,9.73
2018-12-04T14:37:46.297Z,396.80
2018-12-04T14:40:14.234Z,102.57
2018-12-04T14:42:42.132Z,130.53
2018-12-04T14:45:10.077Z,94.90
2018-12-04T14:47:39.044Z,124.57
2018-12-04T14:50:07.764Z,291.90
2018-12-04T14:52:35.854Z,43.73
2018-12-04T14:55:03.858Z,52.90
2018-12-04T14:57:31.881Z,23.43
2018-12-04T14:59:59.840Z,28.50
2018-12-04T15:02:27.753Z,27.83
2018-12-04T15:04:55.613Z,7.40
2018-12-04T15:07:23.600Z,6.90
2018-12-04T15:09:51.536Z,18.30
2018-12-04T15:12:19.509Z,52.10
2018-12-04T15:14:47.416Z,11.47
2018-12-04T15:17:15.332Z,8.17
2018-12-04T15:19:43.296Z,7.30
2018-12-04T15:22:11.261Z,7.20
2018-12-04T15:24:39.232Z,15.43
2018-12-04T15:27:07.129Z,9.10
2018-12-04T15:29:35.094Z,9.90
2018-12-04T15:32:03.092Z,55.20
2018-12-04T15:34:31.679Z,11.40
2018-12-04T15:36:59.647Z,27.50
2018-12-04T15:39:28.016Z,77.53
2018-12-04T15:41:56.229Z,16.47
2018-12-04T15:44:24.228Z,13.23
2018-12-04T15:46:52.202Z,17.03
2018-12-04T15:49:20.213Z,8.03
2018-12-04T15:51:48.202Z,9.03
2018-12-04T15:54:16.174Z,85.67
2018-12-04T15:56:44.090Z,9.27
2018-12-04T15:59:12.038Z,44.57
2018-12-04T16:01:39.924Z,85.17
2018-12-04T16:04:07.877Z,6.10
2018-12-04T16:06:35.774Z,33.70
2018-12-04T16:09:05.736Z,8.07
2018-12-04T16:11:33.788Z,85.23
2018-12-04T16:14:01.672Z,5.87
2018-12-04T16:16:29.566Z,17.20
2018-12-04T16:18:57.417Z,6.33
2018-12-04T16:21:25.309Z,8.10
2018-12-04T16:23:53.245Z,8.30
2018-12-04T16:26:21.124Z,8.80
2018-12-04T16:28:49.078Z,7.03
2018-12-04T16:31:16.993Z,13.70
2018-12-04T16:33:44.876Z,7.23
2018-12-04T16:36:12.770Z,8.00
2018-12-04T16:38:40.661Z,8.03
2018-12-04T16:41:08.594Z,8.67
2018-12-04T16:43:36.504Z,7.93
2018-12-04T16:46:05.430Z,8.10
2018-12-04T16:48:33.389Z,8.87
2018-12-04T16:51:01.263Z,7.90
2018-12-04T16:53:29.138Z,8.20
2018-12-04T16:55:57.062Z,10.17
2018-12-04T16:58:25.251Z,7.97
2018-12-04T17:00:53.312Z,9.60
2018-12-04T17:03:21.180Z,8.63
2018-12-04T17:05:49.079Z,15.33
2018-12-04T17:08:16.985Z,9.70
2018-12-04T17:10:44.926Z,24.10
2018-12-04T17:13:12.844Z,9.93
2018-12-04T17:15:40.814Z,8.37
2018-12-04T17:18:08.741Z,9.03
2018-12-04T17:20:36.678Z,10.80
2018-12-04T17:23:04.581Z,14.67
2018-12-04T17:25:32.600Z,38.40
2018-12-04T17:28:00.573Z,10.37
2018-12-04T17:30:28.475Z,13.50
2018-12-04T17:32:56.513Z,11.00
2018-12-04T17:35:24.402Z,11.97
2018-12-04T17:37:52.293Z,17.17
2018-12-04T17:40:20.958Z,18.87
2018-12-04T17:42:49.268Z,16.90
2018-12-04T17:45:17.147Z,12.63
2018-12-04T17:47:45.040Z,27.97
2018-12-04T17:50:12.931Z,44.23
2018-12-04T17:52:40.853Z,21.53
2018-12-04T17:55:08.863Z,10.90
2018-12-04T17:57:36.733Z,23.93
2018-12-04T18:00:04.847Z,12.33
2018-12-04T18:02:32.781Z,15.60
2018-12-04T18:05:00.657Z,11.87
2018-12-04T18:07:28.636Z,21.73
2018-12-04T18:09:56.560Z,15.93
2018-12-04T18:12:25.096Z,96.10
2018-12-04T18:14:52.964Z,12.23
2018-12-04T18:17:20.875Z,9.77
2018-12-04T18:19:48.786Z,10.37
2018-12-04T18:22:16.727Z,24.47
2018-12-04T18:24:44.699Z,26.43
2018-12-04T18:27:12.618Z,21.90
2018-12-04T18:29:40.544Z,25.90
2018-12-04T18:32:08.520Z,58.40
2018-12-04T18:34:36.469Z,15.13
2018-12-04T18:37:04.389Z,15.80
2018-12-04T18:39:32.292Z,22.43
2018-12-04T18:42:00.302Z,31.83
2018-12-04T18:44:28.263Z,14.83
2018-12-04T18:46:56.215Z,13.30
2018-12-04T18:49:24.156Z,24.30
2018-12-04T18:51:52.143Z,33.07
2018-12-04T18:54:20.216Z,19.07
2018-12-04T18:56:48.185Z,15.30
2018-12-04T18:59:16.180Z,12.80
2018-12-04T19:01:44.104Z,15.93
2018-12-04T19:04:13.225Z,13.40
2018-12-04T19:06:41.173Z,31.20
2018-12-04T19:09:09.102Z,16.20
2018-12-04T19:11:36.989Z,13.80
2018-12-04T19:14:04.913Z,21.73
2018-12-04T19:16:32.805Z,17.80
2018-12-04T19:19:00.720Z,15.50
2018-12-04T19:21:28.625Z,16.33
2018-12-04T19:23:56.565Z,13.83
2018-12-04T19:26:24.434Z,15.20
2018-12-04T19:28:52.899Z,22.43
2018-12-04T19:31:20.784Z,22.23
2018-12-04T19:33:48.785Z,15.40
2018-12-04T19:36:16.724Z,33.53
2018-12-04T19:38:44.959Z,29.13
2018-12-04T19:41:12.937Z,34.47
2018-12-04T19:43:40.854Z,21.73
2018-12-04T19:46:08.763Z,15.70
2018-12-04T19:48:36.638Z,15.60
2018-12-04T19:51:04.635Z,28.07
2018-12-04T19:53:33.358Z,18.40
2018-12-04T19:56:01.332Z,17.33
2018-12-04T19:58:29.341Z,18.33
2018-12-04T20:00:57.443Z,19.63
2018-12-04T20:03:25.474Z,20.33
2018-12-04T20:05:53.492Z,23.73
2018-12-04T20:08:21.559Z,34.33
2018-12-04T20:10:49.565Z,92.47
2018-12-04T20:13:17.554Z,35.53
2018-12-04T20:15:45.452Z,40.60
2018-12-04T20:18:13.409Z,26.23
2018-12-04T20:20:41.356Z,21.00
2018-12-04T20:23:09.333Z,26.90
2018-12-04T20:25:37.236Z,16.70
2018-12-04T20:28:05.182Z,24.07
2018-12-04T20:30:33.200Z,16.80
2018-12-04T20:33:01.203Z,27.87
2018-12-04T20:35:29.173Z,19.50
2018-12-04T20:37:57.143Z,27.40
2018-12-04T20:40:31.390Z,19.17
2018-12-04T20:42:55.189Z,18.50
2018-12-04T20:45:23.101Z,30.53
2018-12-04T20:47:51.105Z,26.00
2018-12-04T20:50:19.161Z,27.87
2018-12-04T20:52:47.076Z,22.07
2018-12-04T20:55:15.005Z,38.70
2018-12-04T20:57:42.959Z,29.57
2018-12-04T21:00:11.491Z,27.87
2018-12-04T21:02:39.437Z,21.67
2018-12-04T21:05:07.529Z,17.57
2018-12-04T21:07:35.417Z,20.43
2018-12-04T21:10:03.773Z,27.30
2018-12-04T21:12:31.692Z,18.23
2018-12-04T21:14:59.617Z,22.93
2018-12-04T21:17:27.785Z,19.13
2018-12-04T21:19:56.536Z,24.00
2018-12-04T21:22:24.440Z,19.10
2018-12-04T21:24:52.876Z,17.83
2018-12-04T21:27:26.326Z,16.67
2018-12-04T21:29:59.808Z,17.37
2018-12-04T21:32:33.473Z,21.50
2018-12-04T21:35:07.004Z,15.50
2018-12-04T21:37:40.505Z,17.43
2018-12-04T21:40:14.121Z,14.80
2018-12-04T21:42:47.610Z,14.23
2018-12-04T21:45:21.048Z,16.40
2018-12-04T21:47:58.419Z,21.83
2018-12-04T21:50:26.483Z,14.63
2018-12-04T21:52:54.411Z,20.73
2018-12-04T21:55:22.408Z,16.10
2018-12-04T21:57:50.317Z,14.67
2018-12-04T22:00:18.848Z,12.50
2018-12-04T22:02:46.748Z,15.33
2018-12-04T22:05:14.749Z,18.23
2018-12-04T22:07:42.660Z,8.90
2018-12-04T22:10:10.592Z,13.70
2018-12-04T22:12:38.539Z,8.60
2018-12-04T22:15:06.473Z,22.27
2018-12-04T22:17:34.344Z,10.67
2018-12-04T22:20:02.505Z,7.23
2018-12-04T22:22:30.443Z,10.80
2018-12-04T22:24:58.372Z,7.70
2018-12-04T22:27:26.285Z,9.57
2018-12-04T22:29:54.219Z,21.27
2018-12-04T22:32:22.176Z,26.80
2018-12-04T22:34:50.080Z,14.57
2018-12-04T22:37:18.038Z,26.13
2018-12-04T22:39:45.940Z,5.77
2018-12-04T22:42:13.855Z,13.60
2018-12-04T22:44:41.740Z,10.43
2018-12-04T22:47:09.680Z,9.97
2018-12-04T22:49:37.605Z,25.13
2018-12-04T22:52:05.503Z,7.53
2018-12-04T22:54:33.416Z,23.03
2018-12-04T22:57:01.333Z,53.17
2018-12-04T22:59:29.252Z,16.43
2018-12-04T23:01:57.227Z,47.23
2018-12-04T23:04:25.364Z,8.37
2018-12-04T23:06:53.217Z,6.73
2018-12-04T23:09:21.145Z,27.00
2018-12-04T23:11:49.055Z,5.90
2018-12-04T23:14:16.923Z,5.63
2018-12-04T23:16:44.847Z,5.93
2018-12-04T23:19:12.821Z,5.40
2018-12-04T23:21:40.752Z,7.90
2018-12-04T23:24:08.731Z,11.33
2018-12-04T23:26:36.673Z,6.73
2018-12-04T23:29:04.584Z,5.20
2018-12-04T23:31:32.500Z,9.43
2018-12-04T23:34:01.224Z,7.13
2018-12-04T23:36:29.125Z,6.73
2018-12-04T23:38:57.089Z,40.00
2018-12-04T23:41:25.014Z,10.27
2018-12-04T23:43:52.893Z,5.17
2018-12-04T23:46:20.811Z,6.70
2018-12-04T23:48:48.707Z,7.20
2018-12-04T23:51:16.612Z,106.87
2018-12-04T23:53:44.524Z,9.30
2018-12-04T23:56:12.431Z,11.40
2018-12-04T23:58:40.345Z,6.50
